Time;durP1;ratioP1;P1;durP2;ratioP2;P2;SDS_P1;SDS_P2;PMS_P1;PMS_P2;Temp;Humidity;BMP_temperature;BMP_pressure;BME280_temperature;BME280_humidity;BME280_pressure;Samples;Min_cycle;Max_cycle;Signal;HPM_P1;HPM_P2
2021/07/02 00:02:04;;;;;;;50.92;25.85;;;15.50;99.90;;;;;;4990995;28;20102;-71
2021/07/02 00:04:32;;;;;;;46.33;23.20;;;15.50;99.90;;;;;;4997180;28;20618;-71
2021/07/02 00:06:57;;;;;;;44.10;23.13;;;15.40;99.90;;;;;;4987756;28;20070;-71
2021/07/02 00:09:23;;;;;;;40.75;19.77;;;15.40;99.90;;;;;;5003654;28;20054;-72
2021/07/02 00:11:49;;;;;;;50.45;23.65;;;15.40;99.90;;;;;;5003449;28;20077;-71
2021/07/02 00:14:15;;;;;;;38.42;21.58;;;15.30;99.90;;;;;;5014202;28;20046;-71
2021/07/02 00:16:41;;;;;;;41.55;20.30;;;15.30;99.90;;;;;;5004181;28;20046;-71
2021/07/02 00:19:07;;;;;;;42.58;20.33;;;15.30;99.90;;;;;;5003709;28;20053;-71
2021/07/02 00:21:32;;;;;;;37.33;20.58;;;15.30;99.90;;;;;;5004456;28;20057;-71
2021/07/02 00:23:58;;;;;;;43.45;22.38;;;15.30;99.90;;;;;;5003895;28;20129;-71
2021/07/02 00:26:24;;;;;;;42.13;20.67;;;15.30;99.90;;;;;;5003955;28;20053;-71
2021/07/02 00:28:50;;;;;;;44.10;21.10;;;15.30;99.90;;;;;;5000741;28;20129;-71
2021/07/02 00:31:16;;;;;;;35.80;18.75;;;15.30;99.90;;;;;;5004296;28;20066;-71
2021/07/02 00:33:42;;;;;;;45.85;20.42;;;15.30;99.90;;;;;;4998895;28;20426;-71
2021/07/02 00:36:08;;;;;;;39.60;21.73;;;15.30;99.90;;;;;;5000057;28;20038;-71
2021/07/02 00:38:33;;;;;;;38.47;20.55;;;15.30;99.90;;;;;;5001382;28;20056;-72
2021/07/02 00:40:59;;;;;;;40.80;20.98;;;15.30;99.90;;;;;;4998235;28;20105;-70
2021/07/02 00:43:25;;;;;;;45.60;21.70;;;15.30;99.90;;;;;;4992695;28;20129;-70
2021/07/02 00:45:51;;;;;;;43.17;21.88;;;15.30;99.90;;;;;;5004055;28;20069;-71
2021/07/02 00:48:16;;;;;;;43.92;22.05;;;15.30;99.90;;;;;;5000924;28;20490;-70
2021/07/02 00:50:43;;;;;;;49.05;20.65;;;15.30;99.90;;;;;;5003780;28;20065;-70
2021/07/02 00:53:11;;;;;;;38.95;20.50;;;15.30;99.90;;;;;;4999288;28;20053;-71
2021/07/02 00:55:38;;;;;;;44.35;22.17;;;15.30;99.90;;;;;;5003955;28;20044;-70
2021/07/02 00:58:04;;;;;;;44.97;22.02;;;15.30;99.90;;;;;;4996741;28;20125;-72
2021/07/02 01:00:30;;;;;;;48.30;22.33;;;15.30;99.90;;;;;;4998026;28;20057;-71
2021/07/02 01:06:37;;;;;;;52.70;21.55;;;15.20;99.90;;;;;;4998845;28;20057;-70
2021/07/02 01:09:05;;;;;;;47.15;22.35;;;15.20;99.90;;;;;;4996707;28;20051;-71
2021/07/02 01:11:33;;;;;;;47.15;20.73;;;15.20;99.90;;;;;;4996805;28;20077;-72
2021/07/02 01:13:58;;;;;;;49.58;21.88;;;15.20;99.90;;;;;;4994404;28;20046;-71
2021/07/02 01:16:24;;;;;;;39.80;19.67;;;15.20;99.90;;;;;;5002274;28;20045;-70
2021/07/02 01:18:50;;;;;;;46.58;20.58;;;15.20;99.90;;;;;;4995158;28;20133;-70
2021/07/02 01:21:16;;;;;;;47.60;21.48;;;15.20;99.90;;;;;;5002301;28;20039;-70
2021/07/02 01:23:41;;;;;;;47.53;20.85;;;15.20;99.90;;;;;;5000261;28;20085;-71
2021/07/02 01:26:09;;;;;;;45.25;21.52;;;15.20;99.90;;;;;;5003575;28;20053;-71
2021/07/02 01:28:35;;;;;;;42.65;19.08;;;15.20;99.90;;;;;;5000312;28;20039;-71
2021/07/02 01:31:02;;;;;;;51.22;20.90;;;15.20;99.90;;;;;;5002550;28;20046;-70
2021/07/02 01:33:28;;;;;;;46.83;19.85;;;15.30;99.90;;;;;;5001777;28;20070;-72
2021/07/02 01:35:58;;;;;;;53.08;20.98;;;15.20;99.90;;;;;;5003499;28;20042;-70
2021/07/02 01:38:23;;;;;;;46.42;20.98;;;15.20;99.90;;;;;;5000939;28;20101;-70
2021/07/02 01:40:49;;;;;;;53.63;20.75;;;15.20;99.90;;;;;;5002616;28;20053;-72
2021/07/02 01:43:15;;;;;;;46.85;19.92;;;15.20;99.90;;;;;;4997504;28;20042;-70
2021/07/02 01:45:41;;;;;;;50.50;20.85;;;15.20;99.90;;;;;;4989983;28;20058;-70
2021/07/02 01:48:06;;;;;;;41.30;19.10;;;15.20;99.90;;;;;;4997215;28;20049;-71
2021/07/02 01:50:32;;;;;;;51.47;19.17;;;15.10;99.90;;;;;;4985952;28;20054;-70
2021/07/02 01:52:58;;;;;;;41.42;18.77;;;15.10;99.90;;;;;;4993731;28;20053;-70
2021/07/02 01:55:24;;;;;;;48.72;20.15;;;15.10;99.90;;;;;;5003538;28;20269;-71
2021/07/02 01:57:50;;;;;;;49.80;20.67;;;15.10;99.90;;;;;;4994748;28;20142;-70
2021/07/02 02:00:17;;;;;;;43.50;19.83;;;15.10;99.90;;;;;;4991261;28;20061;-70
2021/07/02 02:02:44;;;;;;;55.03;18.23;;;15.10;99.90;;;;;;4998487;28;20209;-70
2021/07/02 02:05:11;;;;;;;36.22;16.27;;;15.10;99.90;;;;;;4989587;28;20093;-70
2021/07/02 02:07:37;;;;;;;44.17;19.02;;;15.10;99.90;;;;;;4990799;28;20069;-70
2021/07/02 02:10:03;;;;;;;44.42;16.63;;;15.10;99.90;;;;;;4997720;28;20046;-70
2021/07/02 02:12:29;;;;;;;36.65;17.10;;;15.10;99.90;;;;;;4992013;28;20053;-71
2021/07/02 02:14:56;;;;;;;34.08;17.08;;;15.10;99.90;;;;;;4989625;28;20491;-71
2021/07/02 02:17:22;;;;;;;40.58;18.63;;;15.10;99.90;;;;;;4995000;28;20043;-71
2021/07/02 02:19:48;;;;;;;36.55;16.73;;;15.10;99.90;;;;;;4996402;28;20042;-71
2021/07/02 02:22:14;;;;;;;38.78;17.88;;;15.00;99.90;;;;;;5002942;28;20065;-71
2021/07/02 02:24:40;;;;;;;37.60;17.33;;;15.10;99.90;;;;;;4991486;28;20066;-71
2021/07/02 02:27:05;;;;;;;45.92;16.77;;;15.10;99.90;;;;;;5006405;28;21824;-71
2021/07/02 02:29:31;;;;;;;33.85;15.57;;;15.10;99.90;;;;;;4994961;28;20046;-71
2021/07/02 02:31:57;;;;;;;45.63;16.55;;;15.10;99.90;;;;;;5000789;28;20410;-71
2021/07/02 02:34:23;;;;;;;38.67;15.30;;;15.10;99.90;;;;;;4993923;28;20051;-70
2021/07/02 02:36:50;;;;;;;41.70;16.77;;;15.10;99.90;;;;;;5005866;28;20046;-70
2021/07/02 02:39:15;;;;;;;40.97;16.00;;;15.10;99.90;;;;;;4991438;28;20507;-70
2021/07/02 02:41:41;;;;;;;29.88;14.40;;;15.10;99.90;;;;;;5002808;28;20042;-70
2021/07/02 02:44:07;;;;;;;28.05;13.90;;;15.00;99.90;;;;;;4994086;28;20050;-70
2021/07/02 02:46:33;;;;;;;30.10;14.32;;;15.00;99.90;;;;;;5002068;28;20089;-70
2021/07/02 02:48:59;;;;;;;25.87;12.97;;;15.10;99.90;;;;;;5005975;28;20074;-70
2021/07/02 02:51:25;;;;;;;30.13;14.98;;;15.10;99.90;;;;;;4996148;28;20050;-70
2021/07/02 02:53:51;;;;;;;31.00;13.68;;;15.10;99.90;;;;;;4994359;28;20089;-71
2021/07/02 02:56:17;;;;;;;27.65;14.10;;;15.00;99.90;;;;;;4994333;28;20101;-70
2021/07/02 02:58:43;;;;;;;29.98;14.25;;;15.00;99.90;;;;;;4990754;28;20117;-71
2021/07/02 03:01:09;;;;;;;23.70;12.60;;;15.00;99.90;;;;;;4994295;28;20043;-70
2021/07/02 03:03:36;;;;;;;23.00;12.52;;;15.00;99.90;;;;;;5000142;28;20038;-70
2021/07/02 03:06:02;;;;;;;24.38;13.85;;;15.00;99.90;;;;;;4996120;28;20078;-70
2021/07/02 03:08:27;;;;;;;30.80;14.32;;;15.00;99.90;;;;;;4998057;28;20057;-70
2021/07/02 03:10:53;;;;;;;24.92;14.20;;;15.00;99.90;;;;;;4994876;28;20062;-70
2021/07/02 03:13:19;;;;;;;27.25;12.68;;;15.00;99.90;;;;;;4992482;28;20070;-70
2021/07/02 03:15:45;;;;;;;25.45;12.27;;;15.00;99.90;;;;;;5001440;28;20111;-70
2021/07/02 03:18:10;;;;;;;27.02;13.15;;;15.00;99.90;;;;;;4994070;28;20042;-70
2021/07/02 03:20:36;;;;;;;27.23;13.10;;;15.00;99.90;;;;;;5005767;28;20048;-70
2021/07/02 03:23:02;;;;;;;30.75;14.30;;;15.00;99.90;;;;;;4996909;28;20110;-70
2021/07/02 03:25:28;;;;;;;26.90;14.32;;;15.00;99.90;;;;;;5005304;28;20046;-70
2021/07/02 03:27:54;;;;;;;25.50;12.40;;;15.00;99.90;;;;;;4992067;28;20045;-70
2021/07/02 03:30:19;;;;;;;28.17;12.38;;;15.00;99.90;;;;;;5004248;28;20057;-70
2021/07/02 03:32:45;;;;;;;25.50;12.95;;;15.00;99.90;;;;;;4999784;28;20098;-70
2021/07/02 03:35:12;;;;;;;24.75;12.93;;;15.00;99.90;;;;;;4995597;28;20055;-70
2021/07/02 03:37:38;;;;;;;27.27;13.37;;;15.00;99.90;;;;;;5009769;28;20045;-70
2021/07/02 03:40:09;;;;;;;24.17;12.20;;;15.00;99.90;;;;;;5005331;28;20122;-70
2021/07/02 03:42:35;;;;;;;26.33;13.10;;;15.00;99.90;;;;;;5000248;28;20050;-70
2021/07/02 03:45:01;;;;;;;26.60;13.77;;;15.00;99.90;;;;;;4995411;28;20122;-69
2021/07/02 03:47:27;;;;;;;23.48;12.52;;;15.00;99.90;;;;;;4999435;28;20059;-69
2021/07/02 03:49:53;;;;;;;23.35;12.27;;;15.00;99.90;;;;;;4996099;28;20601;-69
2021/07/02 03:52:19;;;;;;;26.42;12.40;;;15.00;99.90;;;;;;4992356;28;20046;-71
2021/07/02 03:54:45;;;;;;;27.73;13.20;;;15.00;99.90;;;;;;4998208;28;20109;-70
2021/07/02 03:57:11;;;;;;;22.45;13.38;;;15.00;99.90;;;;;;5011851;28;20051;-70
2021/07/02 03:59:46;;;;;;;27.05;13.23;;;14.90;99.90;;;;;;4996471;28;20050;-71
2021/07/02 04:02:12;;;;;;;26.67;12.68;;;15.00;99.90;;;;;;4993778;28;20047;-70
2021/07/02 04:04:40;;;;;;;25.08;13.07;;;15.00;99.90;;;;;;4996582;28;20057;-70
2021/07/02 04:07:08;;;;;;;30.92;14.25;;;15.10;99.90;;;;;;5003374;28;20560;-70
2021/07/02 04:09:34;;;;;;;22.55;12.90;;;15.10;99.90;;;;;;4996898;28;20073;-70
2021/07/02 04:12:01;;;;;;;24.45;12.35;;;15.10;99.90;;;;;;4993851;28;20422;-70
2021/07/02 04:14:28;;;;;;;27.57;13.03;;;15.10;99.90;;;;;;4997818;28;20058;-70
2021/07/02 04:16:54;;;;;;;23.42;12.25;;;15.20;99.90;;;;;;4998484;28;20046;-70
2021/07/02 04:19:20;;;;;;;22.23;12.77;;;15.20;99.90;;;;;;5004117;28;21140;-70
2021/07/02 04:21:46;;;;;;;31.20;14.80;;;15.20;99.90;;;;;;4996451;28;20043;-70
2021/07/02 04:24:12;;;;;;;22.85;12.75;;;15.20;99.90;;;;;;4999782;28;20122;-70
2021/07/02 04:26:38;;;;;;;22.65;13.43;;;15.20;99.90;;;;;;4995060;28;20050;-70
2021/07/02 04:29:04;;;;;;;26.77;13.27;;;15.20;99.90;;;;;;4992304;28;20058;-70
2021/07/02 04:31:30;;;;;;;29.88;12.95;;;15.20;99.90;;;;;;4992080;28;20042;-70
2021/07/02 04:33:56;;;;;;;28.23;12.85;;;15.30;99.90;;;;;;4995644;28;20126;-69
2021/07/02 04:36:22;;;;;;;26.27;13.25;;;15.30;99.90;;;;;;4992261;28;20481;-70
2021/07/02 04:38:48;;;;;;;25.17;13.48;;;15.30;99.90;;;;;;5005297;28;20112;-70
2021/07/02 04:41:14;;;;;;;27.00;12.52;;;15.40;99.90;;;;;;4997551;28;20046;-70
2021/07/02 04:43:40;;;;;;;28.30;12.00;;;15.40;99.90;;;;;;5003809;28;20089;-70
2021/07/02 04:46:06;;;;;;;24.30;12.90;;;15.40;99.90;;;;;;4993682;28;21103;-69
2021/07/02 04:48:31;;;;;;;19.42;11.98;;;15.50;99.90;;;;;;5002730;28;20046;-70
2021/07/02 04:50:57;;;;;;;24.52;12.15;;;15.50;99.90;;;;;;4997238;28;20045;-70
2021/07/02 04:53:23;;;;;;;21.08;13.30;;;15.50;99.90;;;;;;4985954;28;20045;-70
2021/07/02 04:55:49;;;;;;;28.85;12.55;;;15.60;99.90;;;;;;4991742;28;20070;-69
2021/07/02 04:58:17;;;;;;;22.30;12.68;;;15.60;99.90;;;;;;5002777;28;20506;-71
2021/07/02 05:00:44;;;;;;;23.75;12.65;;;15.60;99.90;;;;;;4997852;28;20046;-70
2021/07/02 05:03:10;;;;;;;28.55;13.63;;;15.60;99.90;;;;;;5002562;28;20042;-69
2021/07/02 05:05:36;;;;;;;19.30;10.82;;;15.50;99.90;;;;;;4987887;28;20114;-70
2021/07/02 05:08:02;;;;;;;21.85;12.65;;;15.60;99.90;;;;;;4993757;28;20058;-70
2021/07/02 05:10:29;;;;;;;22.77;12.32;;;15.60;99.90;;;;;;4998672;28;20038;-70
2021/07/02 05:12:55;;;;;;;25.95;12.02;;;15.60;99.90;;;;;;5003746;28;20105;-70
2021/07/02 05:15:21;;;;;;;27.23;12.95;;;15.60;99.90;;;;;;5002905;28;20069;-69
2021/07/02 05:17:48;;;;;;;20.85;11.88;;;15.60;99.90;;;;;;4991158;28;20128;-69
2021/07/02 05:20:14;;;;;;;22.73;12.03;;;15.60;99.90;;;;;;4996275;28;20066;-70
2021/07/02 05:22:39;;;;;;;27.92;12.40;;;15.60;99.90;;;;;;4999518;28;20070;-69
2021/07/02 05:25:06;;;;;;;22.42;12.68;;;15.60;99.90;;;;;;4999434;28;20042;-70
2021/07/02 05:27:32;;;;;;;23.42;12.77;;;15.60;99.90;;;;;;4989016;28;20043;-70
2021/07/02 05:29:59;;;;;;;25.67;12.73;;;15.60;99.90;;;;;;4997982;28;20622;-70
2021/07/02 05:32:25;;;;;;;26.80;13.20;;;15.60;99.90;;;;;;5002708;28;20053;-69
2021/07/02 05:34:50;;;;;;;21.25;11.40;;;15.60;99.90;;;;;;4991887;28;20039;-69
2021/07/02 05:37:16;;;;;;;30.98;13.07;;;15.60;99.90;;;;;;4992100;28;20043;-69
2021/07/02 05:39:42;;;;;;;19.05;11.73;;;15.70;99.90;;;;;;4997251;28;20042;-69
2021/07/02 05:42:08;;;;;;;26.20;13.02;;;15.80;99.90;;;;;;5002676;28;20042;-70
2021/07/02 05:44:33;;;;;;;23.85;12.63;;;15.80;99.90;;;;;;4991515;28;20065;-70
2021/07/02 05:46:59;;;;;;;21.88;12.07;;;15.80;99.90;;;;;;4992138;28;20098;-69
2021/07/02 05:49:25;;;;;;;31.83;12.70;;;15.90;99.90;;;;;;4994629;28;20069;-69
2021/07/02 05:51:51;;;;;;;23.67;12.52;;;15.90;99.90;;;;;;4995323;28;20059;-69
2021/07/02 05:54:17;;;;;;;25.42;11.95;;;16.00;99.90;;;;;;4989075;28;20047;-69
2021/07/02 05:56:43;;;;;;;20.88;12.05;;;16.20;99.90;;;;;;4993175;28;20166;-69
2021/07/02 05:59:09;;;;;;;22.27;12.52;;;16.10;99.90;;;;;;5001467;28;20050;-69
2021/07/02 06:01:35;;;;;;;20.83;12.93;;;16.20;99.90;;;;;;5004572;28;20509;-69
2021/07/02 06:04:01;;;;;;;18.65;12.52;;;16.20;99.90;;;;;;5001354;28;20452;-69
2021/07/02 06:06:27;;;;;;;22.33;12.68;;;16.20;99.90;;;;;;4998825;28;20061;-69
2021/07/02 06:08:53;;;;;;;25.67;12.15;;;16.20;99.90;;;;;;4999353;28;20070;-69
2021/07/02 06:11:20;;;;;;;23.33;14.25;;;16.20;99.90;;;;;;4994691;28;20051;-69
2021/07/02 06:13:46;;;;;;;24.83;13.90;;;16.20;99.90;;;;;;4997487;28;20046;-69
2021/07/02 06:16:12;;;;;;;28.88;13.50;;;16.30;99.90;;;;;;4993795;28;20060;-69
2021/07/02 06:18:38;;;;;;;23.77;13.65;;;16.20;99.90;;;;;;5001354;28;20070;-69
2021/07/02 06:21:04;;;;;;;24.85;13.68;;;16.30;99.90;;;;;;5004092;28;20038;-69
2021/07/02 06:23:34;;;;;;;24.15;13.13;;;16.30;99.90;;;;;;5004161;28;20065;-69
2021/07/02 06:26:05;;;;;;;21.40;11.98;;;16.20;99.90;;;;;;4997647;28;20073;-69
2021/07/02 06:28:31;;;;;;;24.30;13.25;;;16.30;99.90;;;;;;4999022;28;20054;-69
2021/07/02 06:30:57;;;;;;;22.98;12.63;;;16.30;99.90;;;;;;4995684;28;20065;-69
2021/07/02 06:33:24;;;;;;;27.15;13.50;;;16.30;99.90;;;;;;5003191;28;20043;-68
2021/07/02 06:35:50;;;;;;;24.08;13.85;;;16.40;99.90;;;;;;4998667;28;20054;-69
2021/07/02 06:38:16;;;;;;;24.08;13.48;;;16.40;99.90;;;;;;4996452;28;20050;-69
2021/07/02 06:40:43;;;;;;;21.45;12.88;;;16.40;99.90;;;;;;5009235;28;20050;-68
2021/07/02 06:43:09;;;;;;;29.70;15.52;;;16.50;99.90;;;;;;5003868;28;20047;-70
2021/07/02 06:45:39;;;;;;;20.48;12.23;;;16.60;99.90;;;;;;5007295;28;20050;-68
2021/07/02 06:48:06;;;;;;;21.55;13.20;;;16.60;99.90;;;;;;4997163;28;20121;-68
2021/07/02 06:50:37;;;;;;;22.23;12.75;;;16.70;99.90;;;;;;5001199;28;20134;-70
2021/07/02 06:53:05;;;;;;;21.80;11.82;;;16.70;99.90;;;;;;4990729;28;20111;-69
2021/07/02 06:55:52;;;;;;;21.73;12.30;;;16.70;99.90;;;;;;4991718;28;20050;-69
2021/07/02 06:58:19;;;;;;;20.75;12.38;;;16.90;99.90;;;;;;4997902;28;20035;-69
2021/07/02 07:00:44;;;;;;;21.35;12.68;;;17.10;99.90;;;;;;5004122;28;20053;-70
2021/07/02 07:03:10;;;;;;;24.33;12.18;;;17.10;99.90;;;;;;5004986;28;20046;-68
2021/07/02 07:05:38;;;;;;;21.52;12.27;;;17.20;99.90;;;;;;4999871;28;20422;-72
2021/07/02 07:08:07;;;;;;;17.30;12.85;;;17.20;99.90;;;;;;4996098;28;20050;-69
2021/07/02 07:10:34;;;;;;;23.83;13.18;;;17.20;99.90;;;;;;4999124;28;20050;-69
2021/07/02 07:13:01;;;;;;;21.23;12.70;;;17.20;99.90;;;;;;4993072;28;20053;-69
2021/07/02 07:15:28;;;;;;;23.13;12.38;;;17.10;99.90;;;;;;4991367;28;20403;-70
2021/07/02 07:17:54;;;;;;;25.40;12.95;;;17.10;99.90;;;;;;4990319;28;20125;-69
2021/07/02 07:20:22;;;;;;;23.17;12.93;;;17.10;99.90;;;;;;4989845;28;20047;-69
2021/07/02 07:22:48;;;;;;;20.98;12.85;;;17.10;99.90;;;;;;4994647;28;20046;-70
2021/07/02 07:25:15;;;;;;;21.35;13.20;;;17.10;99.90;;;;;;4998455;28;20070;-68
2021/07/02 07:27:44;;;;;;;30.58;14.60;;;17.20;99.90;;;;;;4989027;28;20049;-67
2021/07/02 07:30:11;;;;;;;26.20;13.27;;;17.00;99.90;;;;;;4990813;28;20209;-71
2021/07/02 07:32:38;;;;;;;;;;;17.10;99.90;;;;;;4993163;28;20043;-67
2021/07/02 07:35:15;;;;;;;27.13;14.05;;;17.00;99.90;;;;;;4996195;28;19922;-68
2021/07/02 07:37:41;;;;;;;24.60;13.35;;;17.00;99.90;;;;;;4994074;28;20042;-71
2021/07/02 07:40:08;;;;;;;25.85;13.73;;;17.00;99.90;;;;;;4991087;28;20053;-68
2021/07/02 07:42:34;;;;;;;26.63;14.25;;;17.00;99.90;;;;;;4989705;28;20105;-68
2021/07/02 07:45:00;;;;;;;22.80;14.70;;;17.00;99.90;;;;;;4996907;28;20054;-68
2021/07/02 07:47:25;;;;;;;28.23;15.05;;;17.00;99.90;;;;;;4992173;28;20030;-68
2021/07/02 07:49:51;;;;;;;32.17;15.45;;;17.00;99.90;;;;;;4994756;28;20056;-68
2021/07/02 07:52:25;;;;;;;26.88;14.10;;;17.00;99.90;;;;;;4996804;28;20050;-68
2021/07/02 07:54:50;;;;;;;25.73;14.80;;;17.00;99.90;;;;;;4995002;28;20049;-66
2021/07/02 07:57:16;;;;;;;26.92;14.88;;;17.00;99.90;;;;;;4989983;28;20133;-69
2021/07/02 07:59:43;;;;;;;23.25;13.65;;;16.90;99.90;;;;;;4994020;28;20101;-68
2021/07/02 08:02:08;;;;;;;27.35;13.55;;;17.00;99.90;;;;;;4995075;28;20125;-69
2021/07/02 08:04:35;;;;;;;22.23;13.52;;;17.00;99.90;;;;;;4987899;28;20117;-69
2021/07/02 08:07:01;;;;;;;25.53;13.30;;;17.10;99.90;;;;;;4997813;28;20058;-69
2021/07/02 08:09:29;;;;;;;26.58;14.40;;;17.20;99.90;;;;;;4996503;28;20057;-67
2021/07/02 08:11:55;;;;;;;27.90;13.38;;;17.20;99.90;;;;;;4990628;28;20047;-68
2021/07/02 08:14:21;;;;;;;23.95;14.27;;;17.20;99.90;;;;;;4997097;28;20117;-68
2021/07/02 08:16:47;;;;;;;23.73;13.30;;;17.20;99.90;;;;;;4995108;28;20204;-70
2021/07/02 08:19:13;;;;;;;25.45;13.82;;;17.30;99.90;;;;;;4987786;28;20094;-69
2021/07/02 08:21:57;;;;;;;25.52;13.98;;;17.40;99.90;;;;;;4992691;28;20045;-69
2021/07/02 08:24:23;;;;;;;21.92;13.25;;;17.40;99.90;;;;;;4996620;28;20046;-68
2021/07/02 08:26:55;;;;;;;20.90;12.25;;;17.50;99.90;;;;;;4996773;28;20050;-68
2021/07/02 08:29:28;;;;;;;21.45;12.15;;;17.60;99.90;;;;;;4999170;28;20121;-69
2021/07/02 08:31:55;;;;;;;22.08;12.98;;;17.70;99.90;;;;;;4993108;28;20046;-70
2021/07/02 08:34:25;;;;;;;20.30;12.18;;;17.70;99.90;;;;;;4991532;28;20120;-69
2021/07/02 08:36:51;;;;;;;20.60;12.43;;;17.60;99.90;;;;;;4987568;28;20046;-73
2021/07/02 08:39:17;;;;;;;22.38;12.88;;;17.70;99.90;;;;;;4988044;28;20137;-73
2021/07/02 08:41:43;;;;;;;19.02;12.05;;;17.60;99.90;;;;;;4991072;28;20070;-73
2021/07/02 08:44:09;;;;;;;17.15;11.35;;;17.70;99.90;;;;;;4990838;28;20050;-77
2021/07/02 08:46:36;;;;;;;20.08;12.05;;;17.80;99.90;;;;;;4989596;28;20062;-66
2021/07/02 08:49:03;;;;;;;20.75;12.48;;;17.70;99.90;;;;;;4993084;28;20053;-65
2021/07/02 08:51:28;;;;;;;18.33;12.40;;;17.80;99.90;;;;;;4988694;28;20102;-66
2021/07/02 08:53:55;;;;;;;22.65;12.60;;;18.00;99.90;;;;;;4994736;28;20073;-66
2021/07/02 08:56:21;;;;;;;17.75;11.40;;;18.00;99.90;;;;;;4999114;28;20052;-66
2021/07/02 08:58:47;;;;;;;17.10;11.97;;;18.10;99.90;;;;;;4988568;28;20061;-70
2021/07/02 09:01:42;;;;;;;21.58;11.73;;;18.00;99.90;;;;;;4994198;28;20364;-67
2021/07/02 09:04:25;;;;;;;23.13;12.95;;;18.20;99.90;;;;;;4992321;28;20055;-65
2021/07/02 09:07:01;;;;;;;19.45;11.85;;;18.20;99.90;;;;;;4990681;28;20600;-67
2021/07/02 09:09:49;;;;;;;22.50;12.82;;;18.30;99.90;;;;;;4997282;28;20121;-67
2021/07/02 09:12:17;;;;;;;21.23;12.07;;;18.50;99.90;;;;;;4993312;28;20546;-68
2021/07/02 09:15:06;;;;;;;21.45;12.32;;;18.40;99.90;;;;;;5007910;28;20046;-67
2021/07/02 09:17:34;;;;;;;22.60;12.80;;;18.50;99.90;;;;;;4988630;28;20046;-66
2021/07/02 09:20:20;;;;;;;24.40;12.35;;;18.40;99.90;;;;;;4996370;28;20085;-69
2021/07/02 09:22:47;;;;;;;18.25;12.25;;;18.50;99.90;;;;;;4992188;28;20047;-67
2021/07/02 09:25:23;;;;;;;18.63;12.63;;;18.60;99.90;;;;;;4986624;28;20050;-73
2021/07/02 09:27:50;;;;;;;19.58;12.52;;;18.60;99.90;;;;;;4994230;28;20043;-65
2021/07/02 09:30:22;;;;;;;22.35;12.35;;;18.70;99.90;;;;;;4990338;28;20577;-70
2021/07/02 09:32:53;;;;;;;23.88;12.52;;;18.80;99.90;;;;;;4991590;28;20045;-69
2021/07/02 09:35:22;;;;;;;19.38;12.63;;;18.80;99.90;;;;;;4991331;28;20054;-71
2021/07/02 09:40:21;;;;;;;16.87;11.33;;;19.00;99.90;;;;;;4988056;28;20050;-66
2021/07/02 09:43:12;;;;;;;20.77;11.80;;;19.10;99.90;;;;;;4987264;28;20050;-67
2021/07/02 09:45:52;;;;;;;17.17;11.40;;;19.00;99.90;;;;;;4991769;28;20045;-66
2021/07/02 09:48:25;;;;;;;16.33;10.80;;;19.00;99.90;;;;;;4991084;28;20055;-67
2021/07/02 09:50:55;;;;;;;17.58;10.43;;;19.00;99.90;;;;;;4990932;28;20053;-68
2021/07/02 09:53:28;;;;;;;19.08;11.30;;;18.90;99.90;;;;;;4992853;28;20062;-67
2021/07/02 09:55:55;;;;;;;13.85;9.68;;;18.90;99.90;;;;;;4991421;28;20051;-72
2021/07/02 09:58:28;;;;;;;16.52;10.00;;;19.10;99.90;;;;;;4992870;28;20066;-73
2021/07/02 10:00:56;;;;;;;18.45;10.48;;;19.30;99.90;;;;;;4988041;28;20057;-61
2021/07/02 10:03:28;;;;;;;13.70;9.60;;;19.40;99.90;;;;;;4991783;28;20039;-72
2021/07/02 10:06:00;;;;;;;14.82;9.23;;;19.40;99.90;;;;;;4996650;28;20517;-70
2021/07/02 10:08:34;;;;;;;15.73;9.20;;;19.50;99.90;;;;;;4988668;28;20107;-70
2021/07/02 10:11:02;;;;;;;16.08;9.38;;;19.80;99.90;;;;;;4993175;28;20046;-74
2021/07/02 10:13:31;;;;;;;14.05;8.63;;;20.00;99.90;;;;;;4993130;28;20047;-67
2021/07/02 10:15:59;;;;;;;14.15;9.13;;;20.40;99.90;;;;;;4990077;28;20050;-68
2021/07/02 10:18:27;;;;;;;;;;;20.40;99.90;;;;;;4989569;28;20057;-69
2021/07/02 10:20:55;;;;;;;15.27;9.30;;;20.70;99.90;;;;;;4992013;28;19953;-70
2021/07/02 10:23:31;;;;;;;16.13;9.70;;;20.90;99.90;;;;;;4989640;28;20058;-71
2021/07/02 10:25:57;;;;;;;11.18;8.30;;;21.00;99.90;;;;;;4994223;28;20046;-70
2021/07/02 10:28:24;;;;;;;15.95;8.50;;;21.10;99.90;;;;;;4995244;28;20070;-71
2021/07/02 10:30:51;;;;;;;15.48;8.93;;;21.40;99.90;;;;;;4995831;28;20046;-70
2021/07/02 10:33:21;;;;;;;13.77;8.18;;;21.40;99.90;;;;;;4990245;28;20046;-71
2021/07/02 10:36:02;;;;;;;16.20;8.90;;;21.50;99.90;;;;;;4989463;28;20062;-71
2021/07/02 10:38:39;;;;;;;12.23;8.63;;;21.70;99.90;;;;;;4991750;28;20078;-71
2021/07/02 10:41:12;;;;;;;15.43;8.02;;;21.70;99.90;;;;;;4989097;28;20070;-71
2021/07/02 10:44:02;;;;;;;13.50;8.48;;;21.80;99.90;;;;;;4987540;28;20047;-71
2021/07/02 10:46:28;;;;;;;11.02;7.53;;;21.70;99.90;;;;;;4992376;28;20046;-69
2021/07/02 10:48:56;;;;;;;13.98;8.15;;;21.70;99.90;;;;;;4999530;28;20532;-68
2021/07/02 10:51:31;;;;;;;11.52;7.95;;;21.70;99.90;;;;;;4994838;28;20142;-69
2021/07/02 10:54:09;;;;;;;12.68;7.13;;;21.50;99.90;;;;;;4990077;28;20066;-69
2021/07/02 10:56:35;;;;;;;;;;;21.50;99.90;;;;;;4993353;28;20042;-69
2021/07/02 10:59:02;;;;;;;12.15;8.38;;;21.30;99.90;;;;;;4992811;28;19941;-69
2021/07/02 11:01:31;;;;;;;17.20;8.52;;;21.30;99.90;;;;;;4999097;28;20050;-69
2021/07/02 11:04:38;;;;;;;14.38;8.80;;;21.40;99.90;;;;;;4990980;28;20050;-69
2021/07/02 11:07:22;;;;;;;20.20;9.65;;;21.10;99.90;;;;;;4999895;28;20658;-69
2021/07/02 11:09:52;;;;;;;18.60;9.30;;;21.20;99.90;;;;;;5018844;28;20057;-69
2021/07/02 11:12:21;;;;;;;15.88;8.48;;;21.30;99.90;;;;;;5000687;28;20066;-69
2021/07/02 11:14:54;;;;;;;14.85;9.30;;;21.10;99.90;;;;;;4993989;28;20043;-69
2021/07/02 11:17:32;;;;;;;14.93;8.95;;;21.10;99.90;;;;;;4991224;28;20074;-69
2021/07/02 11:20:21;;;;;;;16.23;9.32;;;21.50;99.90;;;;;;4991211;28;20054;-70
2021/07/02 11:22:48;;;;;;;14.98;9.52;;;21.20;99.90;;;;;;4988427;28;20201;-70
2021/07/02 11:27:59;;;;;;;12.93;8.50;;;21.60;99.90;;;;;;4998924;28;20093;-69
2021/07/02 11:30:44;;;;;;;13.63;8.18;;;21.30;99.90;;;;;;4995439;28;20046;-70
2021/07/02 11:33:10;;;;;;;10.90;7.95;;;21.50;99.90;;;;;;4989020;28;20046;-70
2021/07/02 11:35:39;;;;;;;14.77;8.38;;;21.60;99.90;;;;;;4994347;28;20050;-71
2021/07/02 11:38:16;;;;;;;13.40;8.30;;;21.60;99.90;;;;;;4990679;28;20568;-71
2021/07/02 11:40:47;;;;;;;12.73;8.38;;;21.90;99.90;;;;;;4993724;28;20050;-71
2021/07/02 11:43:14;;;;;;;10.90;8.18;;;22.40;99.90;;;;;;5000021;28;20428;-72
2021/07/02 11:45:53;;;;;;;12.15;7.45;;;23.10;99.90;;;;;;4989479;28;20067;-70
2021/07/02 11:48:21;;;;;;;12.32;8.57;;;23.70;99.90;;;;;;4992703;28;20042;-69
2021/07/02 11:51:00;;;;;;;11.80;7.82;;;24.10;99.90;;;;;;5001824;28;20077;-70
2021/07/02 11:53:41;;;;;;;13.45;7.50;;;24.40;99.90;;;;;;4999149;28;20090;-70
2021/07/02 11:56:32;;;;;;;12.02;8.65;;;24.30;99.90;;;;;;4994573;28;20062;-71
2021/07/02 11:58:59;;;;;;;11.65;7.80;;;24.70;99.90;;;;;;5007776;28;20125;-71
2021/07/02 12:01:26;;;;;;;;;;;25.30;99.90;;;;;;4994650;28;20105;-71
2021/07/02 12:03:53;;;;;;;10.80;6.95;;;25.30;99.90;;;;;;4996131;28;19930;-70
2021/07/02 12:06:24;;;;;;;;;;;24.70;99.90;;;;;;5000865;28;20042;-70
2021/07/02 12:08:57;;;;;;;10.50;6.97;;;24.20;99.90;;;;;;4995650;28;19999;-70
2021/07/02 12:11:45;;;;;;;15.10;8.30;;;24.10;99.90;;;;;;4993662;28;20049;-72
2021/07/02 12:14:15;;;;;;;12.00;7.37;;;23.80;99.90;;;;;;4989913;28;20049;-70
2021/07/02 12:16:49;;;;;;;9.50;7.30;;;23.60;99.90;;;;;;4993016;28;20046;-71
2021/07/02 12:19:22;;;;;;;12.95;7.90;;;23.20;99.90;;;;;;4991418;28;20050;-71
2021/07/02 12:21:56;;;;;;;13.75;8.10;;;22.80;99.90;;;;;;4992185;28;20126;-70
2021/07/02 12:24:27;;;;;;;13.10;8.27;;;22.60;99.90;;;;;;4998539;28;20038;-71
2021/07/02 12:26:59;;;;;;;12.85;7.50;;;22.30;99.90;;;;;;4993661;28;20094;-70
2021/07/02 12:29:27;;;;;;;11.38;7.78;;;21.90;99.90;;;;;;4990204;28;20084;-71
2021/07/02 12:31:54;;;;;;;11.23;8.07;;;21.40;99.90;;;;;;4989519;28;20053;-70
2021/07/02 12:34:25;;;;;;;12.75;8.80;;;21.30;99.90;;;;;;4993107;28;20098;-70
2021/07/02 12:36:58;;;;;;;17.52;9.88;;;21.10;99.90;;;;;;4993334;28;20054;-70
2021/07/02 12:39:30;;;;;;;17.17;9.70;;;21.10;99.90;;;;;;4997952;28;20050;-67
2021/07/02 12:42:01;;;;;;;15.90;11.02;;;21.10;99.90;;;;;;4990027;28;20105;-65
2021/07/02 12:44:29;;;;;;;15.95;10.50;;;21.20;99.90;;;;;;4996438;28;20042;-70
2021/07/02 12:46:56;;;;;;;17.00;11.02;;;21.40;99.90;;;;;;4992576;28;20082;-70